Peter O'Knight Airport

About
Name: Peter O'Knight Airport
Identifier:  TPF/KTPF
Serves:  Tampa, Florida
Owner:  Hillsborough County Aviation Authority
Operator:  Atlas Aviation
Public/Private:  Public
Local Time:  21. Sep 03:05 EDT
Description: Peter O. Knight Airport is an airport on Davis Islands, five minutes from downtown Tampa, Florida. Built as a Works Progress Administration project, it was Tampa's main airport from 1935 to 1945, and is still used by general aviation operators today because of its proximity to the central city. The airport was named for prominent attorney and businessman Peter O. Knight, namesake of Holland & Knight.
Source: Wikipedia
Location
Runways
Identifier Length (m/ft) Surface
4/22 3,580/3,580 Asphalt
18/36 2,688/2,688 Asphalt
Statistics
Flights per Day:
0 flights
Distance: 686km (426mi)
Flights delayed:
0% (0 flights per day delayed)
Delay Average: 150 minutes
Current Weather
 23 C (Humidity: 83%)
  9kt (16km/h / 10mph) from 70°
  16km (10 mi.)
 
 METAR KTPF 210655Z AUTO 07009KT 10SM CLR 23/20 A3011 RMK AO2

Current Delays

Departures
N/A
Arrivals
N/A

Destinations

Top Destinations
Airport Flights
per week
Seats
per week
  Atlanta (PDK) 0 - 0 0
  Panama City (ECP) 0 - 0 0

Airlines & Planes

Top Airlines
Airline Flights
per Day
Seats
per Day
  National Airlines 0 -
  Centennial Airlines 0 -
Top Plane Types
Model Flights Seats
Pilatus PC-12 0.0/day - 0